createdAt,value
2022-12-25T15:53:14.132Z,11.50
2022-12-25T15:55:42.049Z,10.57
2022-12-25T15:58:14.953Z,7.47
2022-12-25T16:00:42.660Z,10.43
2022-12-25T16:03:10.515Z,9.02
2022-12-25T16:05:38.421Z,6.63
2022-12-25T16:08:06.635Z,7.75
2022-12-25T16:10:39.006Z,13.82
2022-12-25T16:13:08.006Z,11.35
2022-12-25T16:15:35.931Z,10.52
2022-12-25T16:18:04.383Z,8.40
2022-12-25T16:20:32.096Z,7.82
2022-12-25T16:22:59.804Z,7.82
2022-12-25T16:25:27.551Z,7.45
2022-12-25T16:27:56.635Z,6.28
2022-12-25T16:30:24.438Z,5.93
2022-12-25T16:32:52.279Z,9.10
2022-12-25T16:35:20.147Z,4.75
2022-12-25T16:37:47.901Z,5.05
2022-12-25T16:40:15.766Z,9.23
2022-12-25T16:42:43.508Z,7.50
2022-12-25T16:45:13.580Z,6.63
2022-12-25T16:47:41.524Z,6.07
2022-12-25T16:50:10.142Z,6.85
2022-12-25T16:52:37.898Z,5.40
2022-12-25T16:55:06.955Z,7.30
2022-12-25T16:57:35.067Z,9.98
2022-12-25T17:00:02.818Z,7.45
2022-12-25T17:02:32.028Z,5.45
2022-12-25T17:05:00.363Z,5.82
2022-12-25T17:07:28.196Z,5.18
2022-12-25T17:09:57.061Z,7.13
2022-12-25T17:12:24.862Z,6.55
2022-12-25T17:14:53.169Z,5.93
2022-12-25T17:17:21.288Z,4.97
2022-12-25T17:19:50.394Z,8.27
2022-12-25T17:22:18.294Z,9.10
2022-12-25T17:24:45.996Z,6.45
2022-12-25T17:27:13.814Z,6.53
2022-12-25T17:29:43.718Z,6.13
2022-12-25T17:32:12.400Z,8.07
2022-12-25T17:34:40.179Z,7.82
2022-12-25T17:37:09.598Z,6.85
2022-12-25T17:39:37.416Z,10.55
2022-12-25T17:42:05.496Z,19.80
2022-12-25T17:44:33.227Z,22.75
2022-12-25T17:47:01.111Z,32.30
2022-12-25T17:49:28.952Z,47.03
2022-12-25T17:51:56.737Z,51.78
2022-12-25T17:54:25.824Z,57.30
2022-12-25T17:56:53.487Z,59.55
2022-12-25T17:59:28.168Z,60.33
2022-12-25T18:01:56.145Z,62.40
2022-12-25T18:04:24.148Z,57.65
2022-12-25T18:06:51.930Z,46.47
2022-12-25T18:09:19.760Z,38.85
2022-12-25T18:11:48.932Z,37.95
2022-12-25T18:14:18.038Z,36.45
2022-12-25T18:16:46.380Z,24.73
2022-12-25T18:19:15.601Z,24.27
2022-12-25T18:21:43.290Z,26.23
2022-12-25T18:24:11.115Z,19.50
2022-12-25T18:26:38.850Z,25.67
2022-12-25T18:29:07.967Z,25.05
2022-12-25T18:31:36.025Z,20.80
2022-12-25T18:34:04.117Z,22.42
2022-12-25T18:36:31.888Z,21.13
2022-12-25T18:38:59.885Z,19.58
2022-12-25T18:41:30.181Z,18.15
2022-12-25T18:44:00.166Z,15.05
2022-12-25T18:46:29.488Z,17.08
2022-12-25T18:48:58.175Z,19.85
2022-12-25T18:51:31.329Z,17.77
2022-12-25T18:54:04.439Z,18.58
2022-12-25T18:56:32.319Z,18.27
2022-12-25T18:59:00.477Z,18.90
2022-12-25T19:01:29.701Z,20.38
2022-12-25T19:04:04.739Z,17.55
2022-12-25T19:06:33.400Z,16.88
2022-12-25T19:09:09.054Z,23.88
2022-12-25T19:11:40.443Z,19.33
2022-12-25T19:14:13.574Z,24.48
2022-12-25T19:16:42.720Z,19.20
2022-12-25T19:19:10.607Z,20.38
2022-12-25T19:21:38.318Z,14.23
2022-12-25T19:24:06.615Z,18.25
2022-12-25T19:26:35.806Z,16.98
2022-12-25T19:29:03.721Z,14.05
2022-12-25T19:31:31.600Z,17.55
2022-12-25T19:34:00.705Z,17.33
2022-12-25T19:36:28.432Z,17.65
2022-12-25T19:38:56.358Z,19.25
2022-12-25T19:41:24.220Z,20.35
2022-12-25T19:43:52.350Z,15.18
2022-12-25T19:46:22.594Z,14.75
2022-12-25T19:48:50.649Z,14.63
2022-12-25T19:51:22.918Z,13.93
2022-12-25T19:53:51.102Z,14.00
2022-12-25T19:56:19.398Z,11.50
2022-12-25T19:58:47.137Z,13.55
2022-12-25T20:01:17.419Z,9.00
2022-12-25T20:03:46.651Z,11.88
2022-12-25T20:06:18.738Z,8.65
2022-12-25T20:08:49.382Z,10.98
2022-12-25T20:11:18.440Z,11.70
2022-12-25T20:13:46.652Z,9.38
2022-12-25T20:16:14.429Z,11.75
2022-12-25T20:18:43.393Z,8.85
2022-12-25T20:21:14.500Z,9.45
2022-12-25T20:23:43.027Z,9.65
2022-12-25T20:26:13.488Z,9.35
2022-12-25T20:28:42.483Z,12.32
2022-12-25T20:31:14.247Z,12.77
2022-12-25T20:33:42.230Z,14.30
2022-12-25T20:36:10.638Z,10.13
2022-12-25T20:38:38.596Z,9.93
2022-12-25T20:43:58.269Z,14.32
2022-12-25T20:46:26.821Z,10.55
2022-12-25T20:48:54.881Z,10.52
2022-12-25T20:51:24.592Z,9.95
2022-12-25T20:53:53.263Z,13.00
2022-12-25T20:56:23.784Z,11.48
2022-12-25T20:58:54.974Z,9.13
2022-12-25T21:01:24.701Z,10.63
2022-12-25T21:03:53.418Z,10.27
